San Juan, PR (00933)

4:31 PM AST on September 16, 2014 (GMT -0400)
Condado, Calle Earle, At The Ocean | Change Station
CLOSE
Current Station
Personal Weather Station
Location: San Juan, SAN JUAN
Elevation: 10 ft
Nearby Weather Stations

Elev 10 ft 18.46 °N, 66.07 °W | Updated 1 second ago

Scattered Clouds
Scattered Clouds
83.4 °F
Feels Like 92 °F
N
8.0
Wind Variable Wind from NE
Gusts 10.0 mph

Today
High -- | Low -- °F
--% Chance of Precip.
Yesterday
High -- | Low -- °F
Precip. -- in
6:12 AM 6:25 PM
Last Quarter, 42% visible
Pressure 29.93 in
Visibility 10.0 miles
Clouds Few 3800 ft
Scattered Clouds 7000 ft
Scattered Clouds 11000 ft
Heat Index 92 °F
Dew Point 76 °F
Humidity 78%
Rainfall 0.00 in
Snow Depth Not available.
UV 3 out of 12
Pollen Not available.
Air Quality Not available.
Flu Activity Not available.
METAR TJSJ 161956Z 06012KT 10SM FEW038 SCT070 SCT110 29/24 A2993 RMK AO2 SLP133 T02940239

More Conditions Fewer Conditions

Pressure 29.93 in
Visibility 10.0 miles
Clouds Few 3800 ft
Scattered Clouds 7000 ft
Scattered Clouds 11000 ft
Heat Index 92 °F
Dew Point 76 °F
Humidity 78%
Rainfall 0.00 in
Snow Depth Not available.
UV 3 out of 12
Pollen Not available.
Air Quality Not available.
Flu Activity Not available.
METAR TJSJ 161956Z 06012KT 10SM FEW038 SCT070 SCT110 29/24 A2993 RMK AO2 SLP133 T02940239

More Conditions Fewer Conditions

10-Day Weather Forecast

Almanac

Astronomy

Sep. 16, 2014 Rise Set
Actual Time 6:12 AM AST 6:25 PM AST
Civil Twilight 5:50 AM AST 6:47 PM AST
Nautical Twilight 5:25 AM AST 7:13 PM AST
Astronomical Twilight 4:59 AM AST 7:38 PM AST
Moon No Moon Rise 1:11 PM AST
Length of Visible Light 12h 57m
Length of Day
12h 13m
Tomorrow will be 1m 2s shorter.
Last Quarter, 42% of the Moon is Illuminated
Today
Last Quarter
Sep 24
New
Oct 1
First Quarter
Oct 8
Full
Oct 15
Last Quarter

Community

WunderPhotos

Upload Photos

1,753,871 photos uploaded!

Nearby

Snow Depth

Station Depth Elevation
No new snow has been reported.

Earthquake Activity

City Distance Mag. Time & Date
No recent earthquake activity has been reported nearby.
Minimum magnitude displayed is 2.5.

Coastal Water Temperatures

Place Temperature
San Juan, PR 86.0 °F
Mayaguez, PR 84.9 °F
Esperanza, PR 87.1 °F

Nearby Weather Stations